Time;durP1;ratioP1;P1;durP2;ratioP2;P2;SDS_P1;SDS_P2;PMS_P1;PMS_P2;Temp;Humidity;BMP_temperature;BMP_pressure;BME280_temperature;BME280_humidity;BME280_pressure;Samples;Min_cycle;Max_cycle;Signal;HPM_P1;HPM_P2
2023/12/16 00:02:03;;;;;;;16.03;5.00;;;7.40;99.90;;;;;;5069058;28;20037;-83
2023/12/16 00:04:29;;;;;;;11.80;4.53;;;7.40;99.90;;;;;;5070322;28;20063;-83
2023/12/16 00:06:55;;;;;;;12.83;4.50;;;7.40;99.90;;;;;;5063450;28;20124;-83
2023/12/16 00:09:20;;;;;;;16.17;5.13;;;7.40;99.90;;;;;;5067171;28;20131;-84
2023/12/16 00:11:46;;;;;;;12.27;4.37;;;7.40;99.90;;;;;;5066639;28;20398;-83
2023/12/16 00:14:12;;;;;;;15.17;4.40;;;7.40;99.90;;;;;;5065662;28;20064;-82
2023/12/16 00:16:46;;;;;;;11.33;4.17;;;7.40;99.90;;;;;;5063398;28;20075;-82
2023/12/16 00:19:11;;;;;;;9.10;3.93;;;7.40;99.90;;;;;;5058086;28;20037;-80
2023/12/16 00:21:37;;;;;;;13.70;4.70;;;7.40;99.90;;;;;;5070697;28;20048;-82
2023/12/16 00:24:04;;;;;;;15.20;4.50;;;7.40;99.90;;;;;;5062640;28;20049;-82
2023/12/16 00:26:31;;;;;;;11.07;4.10;;;7.40;99.90;;;;;;5063262;28;20059;-83
2023/12/16 00:28:56;;;;;;;10.40;4.03;;;7.40;99.90;;;;;;5049091;28;20053;-82
2023/12/16 00:31:22;;;;;;;12.43;4.33;;;7.40;99.90;;;;;;5071314;28;20281;-82
2023/12/16 00:33:48;;;;;;;12.20;4.07;;;7.40;99.90;;;;;;5069808;28;20041;-83
2023/12/16 00:36:13;;;;;;;10.03;4.27;;;7.40;99.90;;;;;;5051891;28;20037;-83
2023/12/16 00:38:39;;;;;;;14.13;4.40;;;7.40;99.90;;;;;;5077697;28;20052;-83
2023/12/16 00:41:05;;;;;;;12.70;4.10;;;7.40;99.90;;;;;;5065242;28;20563;-83
2023/12/16 00:43:31;;;;;;;9.43;3.97;;;7.40;99.90;;;;;;5066681;28;20045;-83
2023/12/16 00:45:57;;;;;;;10.37;4.07;;;7.40;99.90;;;;;;5065118;28;20045;-83
2023/12/16 00:48:22;;;;;;;13.40;4.33;;;7.40;99.90;;;;;;5067906;28;20104;-84
2023/12/16 00:50:48;;;;;;;11.80;4.67;;;7.40;99.90;;;;;;5071075;28;20046;-83
2023/12/16 00:53:14;;;;;;;12.07;4.73;;;7.40;99.90;;;;;;5073684;28;20108;-83
2023/12/16 00:55:40;;;;;;;12.90;4.50;;;7.40;99.90;;;;;;5072155;28;20071;-84
2023/12/16 00:58:07;;;;;;;12.17;4.80;;;7.30;99.90;;;;;;5059785;28;20048;-83
2023/12/16 01:00:32;;;;;;;11.77;4.27;;;7.30;99.90;;;;;;5072823;28;20087;-82
2023/12/16 01:02:58;;;;;;;9.23;4.20;;;7.20;99.90;;;;;;5063317;28;20049;-83
2023/12/16 01:05:24;;;;;;;13.33;4.67;;;7.30;99.90;;;;;;5068181;28;20040;-83
2023/12/16 01:07:50;;;;;;;9.30;3.93;;;7.20;99.90;;;;;;5070375;28;21070;-82
2023/12/16 01:10:16;;;;;;;11.93;4.10;;;7.20;99.90;;;;;;5066375;28;20778;-83
2023/12/16 01:12:42;;;;;;;12.63;4.40;;;7.20;99.90;;;;;;5068617;28;20056;-83
2023/12/16 01:15:08;;;;;;;10.03;3.60;;;7.20;99.90;;;;;;5068093;28;20053;-83
2023/12/16 01:17:34;;;;;;;8.03;3.70;;;7.10;99.90;;;;;;5064138;28;20895;-83
2023/12/16 01:19:59;;;;;;;9.60;3.97;;;7.20;99.90;;;;;;5062848;28;20113;-82
2023/12/16 01:22:25;;;;;;;13.10;4.00;;;7.20;99.90;;;;;;5074124;28;20048;-83
2023/12/16 01:24:51;;;;;;;13.40;4.63;;;7.10;99.90;;;;;;5069167;28;20048;-83
2023/12/16 01:27:16;;;;;;;9.00;3.40;;;7.10;99.90;;;;;;5062936;28;20040;-82
2023/12/16 01:29:42;;;;;;;10.10;4.00;;;7.10;99.90;;;;;;5069336;28;20041;-82
2023/12/16 01:32:08;;;;;;;10.30;3.40;;;7.10;99.90;;;;;;5071895;28;20053;-83
2023/12/16 01:34:33;;;;;;;12.03;4.23;;;7.10;99.90;;;;;;5065478;28;20071;-82
2023/12/16 01:36:59;;;;;;;13.03;4.37;;;7.00;99.90;;;;;;5067434;28;20053;-82
2023/12/16 01:39:25;;;;;;;11.37;4.03;;;6.90;99.90;;;;;;5064575;28;20124;-83
2023/12/16 01:41:51;;;;;;;12.73;4.30;;;7.00;99.90;;;;;;5073522;28;20066;-83
2023/12/16 01:44:16;;;;;;;8.33;4.30;;;6.90;99.90;;;;;;5069421;28;20059;-83
2023/12/16 01:46:42;;;;;;;13.80;3.97;;;6.90;99.90;;;;;;5067458;28;20523;-83
2023/12/16 01:49:09;;;;;;;13.10;4.43;;;6.90;99.90;;;;;;5071619;28;20049;-82
2023/12/16 01:51:35;;;;;;;10.53;4.13;;;6.90;99.90;;;;;;5068480;28;20479;-83
2023/12/16 01:54:01;;;;;;;10.13;4.13;;;6.90;99.90;;;;;;5065232;28;20056;-82
2023/12/16 01:56:29;;;;;;;10.50;4.00;;;6.90;99.90;;;;;;5062050;28;20049;-81
2023/12/16 01:58:54;;;;;;;11.20;4.33;;;6.90;99.90;;;;;;5065155;28;20048;-83
2023/12/16 02:01:21;;;;;;;10.63;3.87;;;6.80;99.90;;;;;;5072239;28;20043;-83
2023/12/16 02:03:47;;;;;;;13.67;3.97;;;6.80;99.90;;;;;;5062495;28;20071;-83
2023/12/16 02:06:14;;;;;;;8.37;4.00;;;6.80;99.90;;;;;;5069150;28;20432;-83
2023/12/16 02:08:40;;;;;;;9.17;3.43;;;6.80;99.90;;;;;;5068138;28;20049;-83
2023/12/16 02:11:10;;;;;;;10.27;3.90;;;6.70;99.90;;;;;;5066473;28;20052;-83
2023/12/16 02:13:36;;;;;;;10.80;4.40;;;6.70;99.90;;;;;;5071322;28;20075;-82
2023/12/16 02:16:02;;;;;;;11.97;4.07;;;6.60;99.90;;;;;;5063538;28;20048;-83
2023/12/16 02:18:28;;;;;;;8.93;3.93;;;6.60;99.90;;;;;;5067018;28;20040;-84
2023/12/16 02:20:54;;;;;;;10.50;4.17;;;6.60;99.90;;;;;;5065121;28;20101;-83
2023/12/16 02:23:20;;;;;;;9.20;3.80;;;6.60;99.90;;;;;;5063955;28;20048;-84
2023/12/16 02:25:45;;;;;;;10.77;4.17;;;6.60;99.90;;;;;;5064670;28;20049;-83
2023/12/16 02:28:11;;;;;;;15.07;4.30;;;6.50;99.90;;;;;;5067199;28;20273;-83
2023/12/16 02:30:37;;;;;;;10.77;4.20;;;6.50;99.90;;;;;;5062059;28;20076;-83
2023/12/16 02:33:03;;;;;;;12.53;4.57;;;6.50;99.90;;;;;;5072498;28;20048;-84
2023/12/16 02:35:28;;;;;;;12.53;4.33;;;6.40;99.90;;;;;;5068431;28;20096;-83
2023/12/16 02:37:54;;;;;;;13.03;4.23;;;6.40;99.90;;;;;;5063734;28;20057;-84
2023/12/16 02:40:20;;;;;;;14.60;4.47;;;6.40;99.90;;;;;;5064897;28;20056;-84
2023/12/16 02:42:46;;;;;;;13.57;4.30;;;6.40;99.90;;;;;;5072158;28;20044;-82
2023/12/16 02:45:11;;;;;;;9.37;4.10;;;6.30;99.90;;;;;;5071254;28;20408;-83
2023/12/16 02:47:37;;;;;;;10.77;4.20;;;6.30;99.90;;;;;;5067690;28;20086;-82
2023/12/16 02:50:07;;;;;;;10.17;4.33;;;6.30;99.90;;;;;;5061191;28;20151;-83
2023/12/16 02:52:33;;;;;;;11.53;4.43;;;6.30;99.90;;;;;;5065711;28;20049;-84
2023/12/16 02:54:58;;;;;;;10.17;4.00;;;6.30;99.90;;;;;;5063587;28;20036;-83
2023/12/16 02:57:24;;;;;;;10.37;4.00;;;6.20;99.90;;;;;;5067303;28;20051;-84
2023/12/16 02:59:50;;;;;;;13.20;4.20;;;6.20;99.90;;;;;;5071012;28;20057;-84
2023/12/16 03:02:15;;;;;;;10.17;3.80;;;6.20;99.90;;;;;;5070945;28;20055;-84
2023/12/16 03:04:41;;;;;;;11.23;4.23;;;6.10;99.90;;;;;;5073614;28;20170;-84
2023/12/16 03:07:07;;;;;;;12.37;4.43;;;6.10;99.90;;;;;;5065174;28;20098;-85
2023/12/16 03:09:33;;;;;;;11.87;4.47;;;6.10;99.90;;;;;;5058747;28;20047;-85
2023/12/16 03:12:00;;;;;;;14.47;5.10;;;6.00;99.90;;;;;;5063459;28;20044;-84
2023/12/16 03:14:27;;;;;;;13.87;4.20;;;6.00;99.90;;;;;;5059334;28;20717;-82
2023/12/16 03:16:52;;;;;;;11.93;4.03;;;6.00;99.90;;;;;;5061602;28;20076;-83
2023/12/16 03:19:18;;;;;;;13.13;4.17;;;6.00;99.90;;;;;;5066173;28;20490;-84
2023/12/16 03:21:44;;;;;;;9.43;4.13;;;6.00;99.90;;;;;;5062789;28;20118;-83
2023/12/16 03:24:09;;;;;;;13.40;4.50;;;6.00;99.90;;;;;;5061713;28;20040;-83
2023/12/16 03:26:35;;;;;;;13.00;4.87;;;6.00;99.90;;;;;;5069563;28;20041;-83
2023/12/16 03:29:01;;;;;;;11.93;4.07;;;5.90;99.90;;;;;;5058699;28;20157;-84
2023/12/16 03:31:27;;;;;;;15.47;4.47;;;5.90;99.90;;;;;;5069600;28;20036;-84
2023/12/16 03:33:53;;;;;;;11.87;3.83;;;5.80;99.90;;;;;;5062417;28;20053;-84
2023/12/16 03:36:19;;;;;;;12.40;4.27;;;5.80;99.90;;;;;;5061861;28;20082;-83
2023/12/16 03:38:45;;;;;;;10.73;4.30;;;5.80;99.90;;;;;;5065102;28;20087;-82
2023/12/16 03:41:11;;;;;;;14.10;4.13;;;5.80;99.90;;;;;;5067759;28;20045;-83
2023/12/16 03:43:37;;;;;;;14.40;4.47;;;5.80;99.90;;;;;;5062454;28;20039;-83
2023/12/16 03:46:03;;;;;;;11.87;4.30;;;5.80;99.90;;;;;;5069487;28;20036;-83
2023/12/16 03:48:29;;;;;;;12.63;4.47;;;5.80;99.90;;;;;;5067451;28;20049;-83
2023/12/16 03:50:55;;;;;;;14.63;4.43;;;5.70;99.90;;;;;;5073776;28;20044;-82
2023/12/16 03:53:21;;;;;;;12.97;4.03;;;5.70;99.90;;;;;;5072293;28;20070;-82
2023/12/16 03:55:47;;;;;;;11.60;4.20;;;5.70;99.90;;;;;;5065649;28;20048;-83
2023/12/16 03:58:12;;;;;;;13.73;4.00;;;5.60;99.90;;;;;;5072500;28;20328;-84
2023/12/16 04:00:38;;;;;;;14.97;4.57;;;5.60;99.90;;;;;;5064328;28;20032;-85
2023/12/16 04:03:03;;;;;;;12.13;4.60;;;5.60;99.90;;;;;;5062724;28;20040;-84
2023/12/16 04:05:29;;;;;;;8.97;4.43;;;5.60;99.90;;;;;;5045827;28;20048;-84
2023/12/16 04:07:55;;;;;;;13.00;3.90;;;5.60;99.90;;;;;;5060396;28;20089;-84
2023/12/16 04:10:20;;;;;;;13.17;4.20;;;5.50;99.90;;;;;;5057376;28;20056;-84
2023/12/16 04:12:46;;;;;;;15.63;4.70;;;5.50;99.90;;;;;;5071954;28;20037;-84
2023/12/16 04:15:12;;;;;;;15.27;4.30;;;5.50;99.90;;;;;;5067567;28;20076;-84
2023/12/16 04:17:38;;;;;;;13.27;4.33;;;5.50;99.90;;;;;;5068194;28;20032;-83
2023/12/16 04:20:04;;;;;;;10.63;4.57;;;5.50;99.90;;;;;;5067923;28;20123;-83
2023/12/16 04:22:30;;;;;;;15.40;4.77;;;5.50;99.90;;;;;;5061576;28;20052;-83
2023/12/16 04:25:00;;;;;;;14.33;4.60;;;5.60;99.90;;;;;;5059825;28;20049;-83
2023/12/16 04:27:27;;;;;;;12.33;4.40;;;5.50;99.90;;;;;;5066092;28;20083;-84
2023/12/16 04:29:53;;;;;;;16.07;4.83;;;5.60;99.90;;;;;;5065747;28;20060;-84
2023/12/16 04:32:19;;;;;;;12.47;4.43;;;5.50;99.90;;;;;;5066506;28;20094;-84
2023/12/16 04:34:45;;;;;;;12.73;4.50;;;5.50;99.90;;;;;;5064649;28;20593;-84
2023/12/16 04:37:10;;;;;;;14.33;4.83;;;5.50;99.90;;;;;;5066240;28;20102;-85
2023/12/16 04:39:37;;;;;;;10.83;4.40;;;5.50;99.90;;;;;;5061224;28;20049;-85
2023/12/16 04:42:03;;;;;;;15.43;4.40;;;5.50;99.90;;;;;;5061109;28;20044;-84
2023/12/16 04:44:29;;;;;;;14.70;4.90;;;5.50;99.90;;;;;;5050471;28;20115;-85
2023/12/16 04:46:55;;;;;;;16.20;4.40;;;5.50;99.90;;;;;;5067631;28;20112;-83
2023/12/16 04:49:20;;;;;;;15.83;4.80;;;5.50;99.90;;;;;;5063295;28;20048;-83
2023/12/16 04:51:46;;;;;;;13.10;4.20;;;5.50;99.90;;;;;;5065938;28;20117;-83
2023/12/16 04:54:12;;;;;;;11.90;4.30;;;5.50;99.90;;;;;;5065268;28;20132;-83
2023/12/16 04:56:37;;;;;;;14.97;4.50;;;5.50;99.90;;;;;;5068067;28;20045;-83
2023/12/16 04:59:03;;;;;;;15.33;5.00;;;5.50;99.90;;;;;;5068923;28;20052;-83
2023/12/16 05:01:29;;;;;;;12.80;4.37;;;5.50;99.90;;;;;;5047692;28;20163;-84
2023/12/16 05:03:55;;;;;;;14.57;4.17;;;5.50;99.90;;;;;;5067130;28;20100;-83
2023/12/16 05:06:21;;;;;;;13.77;4.60;;;5.50;99.90;;;;;;5066768;28;20049;-83
2023/12/16 05:08:47;;;;;;;12.67;4.43;;;5.50;99.90;;;;;;5069777;28;20052;-84
2023/12/16 05:11:12;;;;;;;14.80;5.10;;;5.60;99.90;;;;;;5074030;28;20049;-83
2023/12/16 05:13:38;;;;;;;14.20;4.50;;;5.60;99.90;;;;;;5070002;28;20055;-84
2023/12/16 05:16:04;;;;;;;14.43;4.60;;;5.60;99.90;;;;;;5068859;28;20242;-84
2023/12/16 05:18:30;;;;;;;14.93;4.80;;;5.60;99.90;;;;;;5060320;28;20045;-83
2023/12/16 05:20:55;;;;;;;12.33;4.10;;;5.60;99.90;;;;;;5052718;28;20452;-83
2023/12/16 05:23:21;;;;;;;15.87;4.73;;;5.60;99.90;;;;;;5062589;28;20045;-82
2023/12/16 05:25:47;;;;;;;13.80;4.73;;;5.70;99.90;;;;;;5064217;28;20119;-84
2023/12/16 05:28:12;;;;;;;14.13;4.87;;;5.70;99.90;;;;;;5073665;28;20056;-82
2023/12/16 05:30:38;;;;;;;17.63;5.00;;;5.60;99.90;;;;;;5071126;28;20055;-83
2023/12/16 05:33:04;;;;;;;14.03;4.90;;;5.60;99.90;;;;;;5069726;28;20136;-83
2023/12/16 05:35:30;;;;;;;15.90;5.20;;;5.70;99.90;;;;;;5062785;28;20421;-83
2023/12/16 05:37:56;;;;;;;12.97;4.60;;;5.70;99.90;;;;;;5065485;28;20091;-83
2023/12/16 05:40:22;;;;;;;15.40;5.00;;;5.70;99.90;;;;;;5061528;28;20036;-84
2023/12/16 05:42:48;;;;;;;18.33;5.20;;;5.70;99.90;;;;;;5069169;28;20059;-84
2023/12/16 05:45:13;;;;;;;14.10;5.20;;;5.70;99.90;;;;;;5063536;28;20131;-84
2023/12/16 05:47:39;;;;;;;12.27;5.07;;;5.70;99.90;;;;;;5066579;28;20044;-83
2023/12/16 05:50:08;;;;;;;16.40;5.20;;;5.70;99.90;;;;;;5068974;28;20043;-84
2023/12/16 05:52:35;;;;;;;19.60;5.43;;;5.80;99.90;;;;;;5069658;28;20108;-83
2023/12/16 05:55:01;;;;;;;12.97;5.03;;;5.80;99.90;;;;;;5073628;28;20044;-84
2023/12/16 05:57:27;;;;;;;13.47;5.30;;;5.90;99.90;;;;;;5065849;28;20117;-83
2023/12/16 05:59:53;;;;;;;22.37;5.50;;;5.90;99.90;;;;;;5071803;28;20078;-83
2023/12/16 06:02:19;;;;;;;16.43;5.97;;;5.90;99.90;;;;;;5069870;28;20043;-83
2023/12/16 06:04:45;;;;;;;13.27;5.40;;;6.00;99.90;;;;;;5072893;28;20041;-83
2023/12/16 06:07:10;;;;;;;18.03;5.43;;;5.90;99.90;;;;;;5066060;28;20080;-83
2023/12/16 06:09:36;;;;;;;16.97;5.80;;;6.00;99.90;;;;;;5063390;28;20072;-83
2023/12/16 06:12:02;;;;;;;19.50;6.10;;;6.00;99.90;;;;;;5072441;28;20146;-83
2023/12/16 06:14:28;;;;;;;18.23;5.73;;;5.90;99.90;;;;;;5067003;28;20037;-84
2023/12/16 06:16:54;;;;;;;18.03;6.47;;;5.90;99.90;;;;;;5068097;28;20043;-83
2023/12/16 06:19:19;;;;;;;21.50;6.03;;;5.90;99.90;;;;;;5066695;28;20055;-81
2023/12/16 06:21:45;;;;;;;16.03;6.17;;;6.00;99.90;;;;;;5065155;28;20058;-80
2023/12/16 06:24:11;;;;;;;15.23;5.40;;;6.00;99.90;;;;;;5059615;28;20051;-84
2023/12/16 06:26:37;;;;;;;19.90;6.70;;;6.00;99.90;;;;;;5065541;28;20477;-84
2023/12/16 06:29:02;;;;;;;19.70;6.33;;;6.10;99.90;;;;;;5062917;28;20079;-83
2023/12/16 06:31:28;;;;;;;19.43;6.33;;;6.10;99.90;;;;;;5067035;28;20064;-81
2023/12/16 06:33:54;;;;;;;17.20;6.10;;;6.10;99.90;;;;;;5065607;28;20045;-83
2023/12/16 06:36:19;;;;;;;19.20;6.13;;;6.20;99.90;;;;;;5032125;28;20048;-83
2023/12/16 06:38:45;;;;;;;21.00;6.57;;;6.20;99.90;;;;;;5068215;28;20053;-79
2023/12/16 06:41:11;;;;;;;20.77;5.80;;;6.30;99.90;;;;;;5063850;28;20044;-80
2023/12/16 06:43:37;;;;;;;17.87;6.37;;;6.30;99.90;;;;;;5067379;28;20040;-78
2023/12/16 06:46:03;;;;;;;21.17;6.37;;;6.30;99.90;;;;;;5065520;28;20128;-80
2023/12/16 06:48:28;;;;;;;20.03;6.30;;;6.30;99.90;;;;;;5048302;28;20067;-83
2023/12/16 06:50:57;;;;;;;18.73;6.57;;;6.40;99.90;;;;;;5067694;28;20107;-84
2023/12/16 06:53:23;;;;;;;16.63;6.47;;;6.40;99.90;;;;;;5071128;28;20048;-79
2023/12/16 06:55:49;;;;;;;18.83;6.30;;;6.40;99.90;;;;;;5027896;28;20222;-82
2023/12/16 06:58:14;;;;;;;20.50;6.63;;;6.50;99.90;;;;;;5061189;28;20111;-78
2023/12/16 07:00:40;;;;;;;19.80;6.77;;;6.40;99.90;;;;;;5064150;28;20040;-79
2023/12/16 07:03:06;;;;;;;17.30;6.13;;;6.50;99.90;;;;;;5063558;28;20052;-78
2023/12/16 07:05:34;;;;;;;23.57;7.00;;;6.50;99.90;;;;;;5063517;28;20062;-79
2023/12/16 07:08:00;;;;;;;21.20;6.60;;;6.50;99.90;;;;;;5065489;28;20048;-78
2023/12/16 07:10:25;;;;;;;21.83;7.17;;;6.50;99.90;;;;;;5060731;28;20053;-78
2023/12/16 07:12:51;;;;;;;17.97;6.67;;;6.50;99.90;;;;;;5066809;28;20099;-78
2023/12/16 07:15:18;;;;;;;17.13;6.70;;;6.50;99.90;;;;;;5065889;28;20041;-79
2023/12/16 07:17:44;;;;;;;19.73;6.57;;;6.60;99.90;;;;;;5067809;28;20416;-78
2023/12/16 07:20:10;;;;;;;21.47;7.37;;;6.60;99.90;;;;;;5064976;28;20044;-78
2023/12/16 07:22:36;;;;;;;19.17;7.40;;;6.60;99.90;;;;;;5065945;28;20131;-79
2023/12/16 07:25:02;;;;;;;23.30;6.50;;;6.70;99.90;;;;;;5065497;28;20137;-78
2023/12/16 07:27:27;;;;;;;22.13;7.00;;;6.60;99.90;;;;;;5065812;28;20081;-78
2023/12/16 07:29:53;;;;;;;17.77;7.07;;;6.70;99.90;;;;;;5070667;28;20048;-78
2023/12/16 07:32:19;;;;;;;28.57;7.93;;;6.70;99.90;;;;;;5072106;28;20040;-78
2023/12/16 07:34:45;;;;;;;21.07;7.30;;;6.70;99.90;;;;;;5047649;28;20159;-78
2023/12/16 07:37:10;;;;;;;19.50;7.80;;;6.70;99.90;;;;;;5049011;28;20058;-77
2023/12/16 07:39:36;;;;;;;25.83;7.43;;;6.70;99.90;;;;;;5060232;28;20048;-77
2023/12/16 07:42:02;;;;;;;22.90;8.17;;;6.80;99.90;;;;;;5061231;28;20381;-77
2023/12/16 07:44:28;;;;;;;19.33;7.90;;;6.80;99.90;;;;;;5064964;28;20055;-78
2023/12/16 07:46:54;;;;;;;22.10;7.20;;;6.80;99.90;;;;;;5066011;28;20044;-78
2023/12/16 07:49:24;;;;;;;25.10;7.93;;;6.80;99.90;;;;;;5061539;28;20550;-79
2023/12/16 07:51:51;;;;;;;22.00;7.63;;;6.80;99.90;;;;;;5064827;28;20052;-78
2023/12/16 07:54:17;;;;;;;23.37;7.87;;;6.80;99.90;;;;;;5063374;28;20132;-78
2023/12/16 07:56:42;;;;;;;22.27;7.77;;;6.80;99.90;;;;;;5066665;28;20146;-81
2023/12/16 07:59:08;;;;;;;17.70;7.47;;;6.80;99.90;;;;;;5065594;28;20086;-81
2023/12/16 08:01:34;;;;;;;21.97;8.10;;;6.90;99.90;;;;;;5045515;28;20057;-78
2023/12/16 08:03:59;;;;;;;17.60;7.70;;;6.80;99.90;;;;;;5065562;28;20048;-77
2023/12/16 08:06:25;;;;;;;23.77;7.93;;;6.80;99.90;;;;;;5067597;28;20045;-77
2023/12/16 08:08:51;;;;;;;25.43;8.73;;;6.80;99.90;;;;;;5062223;28;20049;-78
2023/12/16 08:11:16;;;;;;;24.00;9.23;;;6.80;99.90;;;;;;5040259;28;20045;-77
2023/12/16 08:13:42;;;;;;;23.80;8.30;;;6.80;99.90;;;;;;5062188;28;20423;-77
2023/12/16 08:16:10;;;;;;;25.80;8.03;;;6.70;99.90;;;;;;5032238;28;20066;-78
2023/12/16 08:18:35;;;;;;;23.33;8.53;;;6.70;99.90;;;;;;5066133;28;20098;-78
2023/12/16 08:21:01;;;;;;;23.67;8.33;;;6.80;99.90;;;;;;5062280;28;20664;-79
2023/12/16 08:23:27;;;;;;;25.33;8.57;;;6.80;99.90;;;;;;5045352;28;20083;-79
2023/12/16 08:25:52;;;;;;;25.83;8.43;;;6.80;99.90;;;;;;5048373;28;20172;-78
2023/12/16 08:28:18;;;;;;;23.37;9.20;;;6.80;99.90;;;;;;5033089;28;20041;-78
2023/12/16 08:30:44;;;;;;;24.10;9.10;;;6.90;99.90;;;;;;5047255;28;20045;-78
2023/12/16 08:33:10;;;;;;;22.50;8.57;;;6.90;99.90;;;;;;5049208;28;20041;-78
2023/12/16 08:35:36;;;;;;;20.50;8.33;;;6.90;99.90;;;;;;5061877;28;20049;-78
2023/12/16 08:38:03;;;;;;;21.77;8.80;;;6.90;99.90;;;;;;5069463;28;20121;-78
2023/12/16 08:40:29;;;;;;;28.87;9.00;;;6.90;99.90;;;;;;5064842;28;20040;-78
2023/12/16 08:42:54;;;;;;;24.07;8.30;;;7.00;99.90;;;;;;5065791;28;20138;-78
2023/12/16 08:45:20;;;;;;;27.00;9.10;;;7.00;99.90;;;;;;5063032;28;20049;-77
2023/12/16 08:47:46;;;;;;;26.97;8.10;;;7.00;99.90;;;;;;5068897;28;20663;-78
2023/12/16 08:50:12;;;;;;;22.47;8.73;;;7.00;99.90;;;;;;5066412;28;20048;-78
2023/12/16 08:52:38;;;;;;;24.43;8.30;;;7.00;99.90;;;;;;5067484;28;20044;-78
2023/12/16 08:55:04;;;;;;;28.93;9.17;;;7.10;99.90;;;;;;5064944;28;20051;-78
2023/12/16 08:57:30;;;;;;;22.23;7.87;;;7.10;99.90;;;;;;5065958;28;20075;-78
2023/12/16 08:59:57;;;;;;;23.70;8.67;;;7.10;99.90;;;;;;5066863;28;20071;-78
2023/12/16 09:02:23;;;;;;;26.63;9.27;;;7.10;99.90;;;;;;5066605;28;20044;-78
2023/12/16 09:04:49;;;;;;;30.43;9.60;;;7.20;99.90;;;;;;5069099;28;20461;-78
2023/12/16 09:07:15;;;;;;;26.07;10.07;;;7.20;99.90;;;;;;5071164;28;20059;-78
2023/12/16 09:09:40;;;;;;;28.00;9.43;;;7.20;99.90;;;;;;5068993;28;20055;-78
2023/12/16 09:12:07;;;;;;;25.73;9.30;;;7.30;99.90;;;;;;5066116;28;20051;-78
2023/12/16 09:14:33;;;;;;;29.77;11.30;;;7.20;99.90;;;;;;5066836;28;20049;-78
2023/12/16 09:17:00;;;;;;;36.10;10.70;;;7.20;99.90;;;;;;5054585;28;20106;-78
2023/12/16 09:19:26;;;;;;;32.60;10.70;;;7.30;99.90;;;;;;5073130;28;20410;-79
2023/12/16 09:21:52;;;;;;;29.33;10.40;;;7.30;99.90;;;;;;5069136;28;20115;-78
2023/12/16 09:24:17;;;;;;;28.00;9.90;;;7.30;99.90;;;;;;5065084;28;20112;-78
2023/12/16 09:26:44;;;;;;;33.53;10.60;;;7.30;99.90;;;;;;5048314;28;20072;-79
2023/12/16 09:29:11;;;;;;;30.77;10.83;;;7.30;99.90;;;;;;5066274;28;20064;-78
2023/12/16 09:31:37;;;;;;;35.87;10.97;;;7.30;99.90;;;;;;5063390;28;20381;-79
2023/12/16 09:34:03;;;;;;;30.97;10.40;;;7.30;99.90;;;;;;5064541;28;20041;-79
2023/12/16 09:36:29;;;;;;;29.90;10.40;;;7.30;99.90;;;;;;5047615;28;20050;-77
2023/12/16 09:38:57;;;;;;;33.33;10.80;;;7.30;99.90;;;;;;5069605;28;20059;-79
2023/12/16 09:41:31;;;;;;;33.40;10.30;;;7.30;99.90;;;;;;5049108;28;20471;-77
2023/12/16 09:43:58;;;;;;;37.23;11.23;;;7.30;99.90;;;;;;5050526;28;20104;-78
2023/12/16 09:46:27;;;;;;;37.47;11.70;;;7.30;99.90;;;;;;5068672;28;20044;-79
2023/12/16 09:48:53;;;;;;;31.13;11.73;;;7.30;99.90;;;;;;5067216;28;20063;-79
2023/12/16 09:51:21;;;;;;;37.03;11.50;;;7.30;99.90;;;;;;5069420;28;20047;-79
2023/12/16 09:53:48;;;;;;;36.60;12.10;;;7.30;99.90;;;;;;5067570;28;20133;-79
2023/12/16 09:56:16;;;;;;;26.87;11.00;;;7.30;99.90;;;;;;5067562;28;20059;-78
2023/12/16 09:58:43;;;;;;;37.07;12.83;;;7.30;99.90;;;;;;5069788;28;20087;-79
2023/12/16 10:01:10;;;;;;;29.63;11.77;;;7.30;99.90;;;;;;5070612;28;20041;-79
2023/12/16 10:03:40;;;;;;;29.10;11.33;;;7.30;99.90;;;;;;5070893;28;20682;-79
2023/12/16 10:06:10;;;;;;;34.37;13.00;;;7.30;99.90;;;;;;5062753;28;20049;-79
2023/12/16 10:08:36;;;;;;;37.87;13.67;;;7.30;99.90;;;;;;5064605;28;20037;-79
2023/12/16 10:11:04;;;;;;;36.97;13.20;;;7.30;99.90;;;;;;5046267;28;20124;-80
2023/12/16 10:13:33;;;;;;;32.83;12.57;;;7.40;99.90;;;;;;5065607;28;20063;-78
2023/12/16 10:15:59;;;;;;;37.93;14.00;;;7.30;99.90;;;;;;5066588;28;20060;-78
2023/12/16 10:18:29;;;;;;;43.30;14.27;;;7.30;99.90;;;;;;5065986;28;20048;-78
2023/12/16 10:20:55;;;;;;;35.97;14.00;;;7.40;99.90;;;;;;5070620;28;20418;-80
2023/12/16 10:23:25;;;;;;;39.37;14.23;;;7.40;99.90;;;;;;5071782;28;20053;-78
2023/12/16 10:25:51;;;;;;;43.50;15.50;;;7.40;99.90;;;;;;5028816;28;20475;-76
2023/12/16 10:28:18;;;;;;;42.83;15.40;;;7.40;99.90;;;;;;5018256;28;20039;-77
2023/12/16 10:30:45;;;;;;;42.10;15.80;;;7.40;99.90;;;;;;5071481;28;20057;-77
2023/12/16 10:33:11;;;;;;;34.80;14.47;;;7.40;99.90;;;;;;5047637;28;20044;-76
2023/12/16 10:35:42;;;;;;;41.73;16.47;;;7.50;99.90;;;;;;5070016;28;20032;-77
2023/12/16 10:38:10;;;;;;;45.43;16.80;;;7.50;99.90;;;;;;5071495;28;20059;-77
2023/12/16 10:40:37;;;;;;;35.77;16.87;;;7.50;99.90;;;;;;5060625;28;20037;-77
2023/12/16 10:43:03;;;;;;;47.37;17.50;;;7.60;99.90;;;;;;5067266;28;20036;-77
2023/12/16 10:45:29;;;;;;;42.43;17.57;;;7.60;99.90;;;;;;5030512;28;20052;-77
2023/12/16 10:47:56;;;;;;;43.23;16.50;;;7.60;99.90;;;;;;5050687;28;20367;-77
2023/12/16 10:50:25;;;;;;;48.37;18.50;;;7.60;99.90;;;;;;5068734;28;20029;-77
2023/12/16 10:52:56;;;;;;;48.73;18.10;;;7.60;99.90;;;;;;5066621;28;20047;-77
2023/12/16 10:55:31;;;;;;;59.03;20.35;;;7.70;99.90;;;;;;5061622;28;20087;-77
2023/12/16 10:58:25;;;;;;;49.47;19.20;;;7.70;99.90;;;;;;5060595;28;20051;-77
2023/12/16 11:00:52;;;;;;;42.93;19.23;;;7.70;99.90;;;;;;5065818;28;20055;-76
2023/12/16 11:03:29;;;;;;;40.07;19.33;;;7.70;99.90;;;;;;5051747;28;20040;-78
2023/12/16 11:06:06;;;;;;;42.77;19.50;;;7.70;99.90;;;;;;5065111;28;20070;-77
2023/12/16 11:08:34;;;;;;;48.17;19.97;;;7.70;99.90;;;;;;5068844;28;20589;-76
2023/12/16 11:11:01;;;;;;;48.03;19.90;;;7.70;99.90;;;;;;5063357;28;20044;-77
2023/12/16 11:13:28;;;;;;;45.13;20.30;;;7.70;99.90;;;;;;5034020;28;20051;-77
2023/12/16 11:16:01;;;;;;;45.73;19.37;;;7.70;99.90;;;;;;5048627;28;20102;-78
2023/12/16 11:18:29;;;;;;;42.13;20.20;;;7.70;99.90;;;;;;5061532;28;20045;-77
2023/12/16 11:21:04;;;;;;;47.43;20.20;;;7.70;99.90;;;;;;5065257;28;20102;-78
2023/12/16 11:23:30;;;;;;;46.00;20.73;;;7.70;99.90;;;;;;5048430;28;20172;-77
2023/12/16 11:26:02;;;;;;;41.43;20.90;;;7.70;99.90;;;;;;5069417;28;20120;-76
2023/12/16 11:28:28;;;;;;;45.33;21.05;;;7.80;99.90;;;;;;5068597;28;20056;-77
2023/12/16 11:30:57;;;;;;;44.43;20.40;;;7.70;99.90;;;;;;5028003;28;20508;-77
2023/12/16 11:33:23;;;;;;;40.40;20.63;;;7.80;99.90;;;;;;5071866;28;20044;-77
2023/12/16 11:35:52;;;;;;;39.30;19.47;;;7.80;99.90;;;;;;5026950;28;20059;-77
2023/12/16 11:38:50;;;;;;;39.10;19.77;;;7.80;99.90;;;;;;5068111;28;20060;-77
2023/12/16 11:41:35;;;;;;;40.60;19.97;;;7.80;99.90;;;;;;5021563;28;20055;-77
2023/12/16 11:44:01;;;;;;;35.63;17.87;;;7.90;99.90;;;;;;5071320;28;20056;-77
2023/12/16 11:46:43;;;;;;;40.27;21.13;;;7.90;99.90;;;;;;5044838;28;20099;-77
2023/12/16 11:49:16;;;;;;;48.87;20.57;;;7.80;99.90;;;;;;5061477;28;20056;-77
2023/12/16 11:51:43;;;;;;;40.17;20.20;;;7.90;99.90;;;;;;5063349;28;20123;-77
2023/12/16 11:54:10;;;;;;;41.10;21.47;;;7.90;99.90;;;;;;5062872;28;20352;-77
2023/12/16 11:56:36;;;;;;;40.33;20.63;;;7.90;99.90;;;;;;5060604;28;20041;-77
2023/12/16 11:59:03;;;;;;;41.07;20.93;;;8.00;99.90;;;;;;5046434;28;20052;-77
2023/12/16 12:01:33;;;;;;;47.00;20.63;;;8.00;99.90;;;;;;5028001;28;20048;-76
2023/12/16 12:04:02;;;;;;;38.03;19.93;;;8.00;99.90;;;;;;5033480;28;20083;-77
2023/12/16 12:06:29;;;;;;;43.70;20.70;;;8.00;99.90;;;;;;5058156;28;20051;-77
2023/12/16 12:08:54;;;;;;;38.23;20.70;;;8.00;99.90;;;;;;5069223;28;20051;-77
2023/12/16 12:11:21;;;;;;;39.43;19.73;;;8.00;99.90;;;;;;5024935;28;20124;-77
2023/12/16 12:13:51;;;;;;;42.97;20.70;;;8.00;99.90;;;;;;5060050;28;20036;-77
2023/12/16 12:16:17;;;;;;;35.67;19.63;;;8.00;99.90;;;;;;5059825;28;20519;-77
2023/12/16 12:18:43;;;;;;;35.57;20.00;;;8.00;99.90;;;;;;5049451;28;20052;-77
2023/12/16 12:21:12;;;;;;;37.20;19.93;;;8.00;99.90;;;;;;5050574;28;20054;-77
2023/12/16 12:23:40;;;;;;;35.67;18.87;;;8.00;99.90;;;;;;5046675;28;20048;-77
2023/12/16 12:26:06;;;;;;;37.57;18.80;;;8.00;99.90;;;;;;5058412;28;20151;-77
2023/12/16 12:28:33;;;;;;;32.13;16.50;;;8.00;99.90;;;;;;5051849;28;20048;-77
2023/12/16 12:31:08;;;;;;;37.57;19.13;;;8.10;99.90;;;;;;5075437;28;20052;-78
2023/12/16 12:33:36;;;;;;;39.20;19.50;;;8.10;99.90;;;;;;5036165;28;20091;-78
2023/12/16 12:36:03;;;;;;;30.13;17.57;;;8.00;99.90;;;;;;5052863;28;20036;-77
2023/12/16 12:38:29;;;;;;;33.10;17.83;;;8.10;99.90;;;;;;5050354;28;20053;-78
2023/12/16 12:41:04;;;;;;;29.57;17.63;;;8.10;99.90;;;;;;5046977;28;20117;-78
2023/12/16 12:43:34;;;;;;;29.93;17.13;;;8.10;99.90;;;;;;5068802;28;20093;-78